createdAt,value
2023-07-09T00:02:03.130Z,11.05
2023-07-09T00:07:05.190Z,13.60
2023-07-09T00:12:12.510Z,13.65
2023-07-09T00:17:34.802Z,13.40
2023-07-09T00:22:36.495Z,11.00
2023-07-09T00:27:39.287Z,12.63
2023-07-09T00:32:44.739Z,12.32
2023-07-09T00:37:47.021Z,13.40
2023-07-09T00:42:49.812Z,11.38
2023-07-09T00:47:51.235Z,12.98
2023-07-09T00:52:55.350Z,15.73
2023-07-09T00:57:59.661Z,12.30
2023-07-09T01:03:02.122Z,12.07
2023-07-09T01:08:03.885Z,15.40
2023-07-09T01:13:05.331Z,12.60
2023-07-09T01:18:06.951Z,11.02
2023-07-09T01:23:09.020Z,12.63
2023-07-09T01:28:11.408Z,13.55
2023-07-09T01:33:12.930Z,13.93
2023-07-09T01:38:14.725Z,15.98
2023-07-09T01:43:16.161Z,16.83
2023-07-09T01:48:21.310Z,12.90
2023-07-09T01:53:27.269Z,13.13
2023-07-09T01:58:32.826Z,12.77
2023-07-09T02:03:34.264Z,18.23
2023-07-09T02:08:36.206Z,12.63
2023-07-09T02:13:38.020Z,12.27
2023-07-09T02:18:39.461Z,16.27
2023-07-09T02:23:40.925Z,13.40
2023-07-09T02:28:42.360Z,12.90
2023-07-09T02:33:43.846Z,13.25
2023-07-09T02:38:45.419Z,15.18
2023-07-09T02:43:46.955Z,12.40
2023-07-09T02:48:48.373Z,14.45
2023-07-09T02:53:49.807Z,12.65
2023-07-09T02:58:51.990Z,12.80
2023-07-09T03:03:54.203Z,13.18
2023-07-09T03:08:55.720Z,15.70
2023-07-09T03:13:57.261Z,15.57
2023-07-09T03:18:59.376Z,13.25
2023-07-09T03:24:01.174Z,13.57
2023-07-09T03:29:02.694Z,13.73
2023-07-09T03:34:04.298Z,15.15
2023-07-09T03:39:06.577Z,14.32
2023-07-09T03:44:07.993Z,13.45
2023-07-09T03:49:09.405Z,12.63
2023-07-09T03:54:11.331Z,11.95
2023-07-09T03:59:12.749Z,13.35
2023-07-09T04:04:14.670Z,15.07
2023-07-09T04:09:16.122Z,15.07
2023-07-09T04:14:17.573Z,13.52
2023-07-09T04:19:18.997Z,13.40
2023-07-09T04:24:20.826Z,13.27
2023-07-09T04:29:22.240Z,13.40
2023-07-09T04:34:24.153Z,14.23
2023-07-09T04:39:25.738Z,14.40
2023-07-09T04:44:27.295Z,13.20
2023-07-09T04:49:28.722Z,12.52
2023-07-09T04:54:30.163Z,14.60
2023-07-09T04:59:32.388Z,16.52
2023-07-09T05:04:33.901Z,15.48
2023-07-09T05:09:38.203Z,16.83
2023-07-09T05:14:40.063Z,15.00
2023-07-09T05:19:41.542Z,13.20
2023-07-09T05:24:42.952Z,13.10
2023-07-09T05:29:44.440Z,13.63
2023-07-09T05:34:45.863Z,15.23
2023-07-09T05:39:47.423Z,17.45
2023-07-09T05:44:48.988Z,12.90
2023-07-09T05:49:51.696Z,17.25
2023-07-09T05:54:54.331Z,13.55
2023-07-09T05:59:55.872Z,17.67
2023-07-09T06:04:59.497Z,19.17
2023-07-09T06:10:01.001Z,17.45
2023-07-09T06:15:02.607Z,15.20
2023-07-09T06:20:04.207Z,16.80
2023-07-09T06:25:05.940Z,18.08
2023-07-09T06:30:07.708Z,20.35
2023-07-09T06:35:09.361Z,23.10
2023-07-09T06:40:11.008Z,20.60
2023-07-09T06:45:12.551Z,21.25
2023-07-09T06:50:14.397Z,21.77
2023-07-09T06:55:15.953Z,19.10
2023-07-09T07:00:17.776Z,17.67
2023-07-09T07:05:20.035Z,18.67
2023-07-09T07:10:21.651Z,18.60
2023-07-09T07:15:23.434Z,17.38
2023-07-09T07:20:24.899Z,17.90
2023-07-09T07:25:26.446Z,16.30
2023-07-09T07:30:28.100Z,16.63
2023-07-09T07:35:29.615Z,17.20
2023-07-09T07:40:31.067Z,13.35
2023-07-09T07:45:33.068Z,11.90
2023-07-09T07:50:34.537Z,11.90
2023-07-09T07:55:37.601Z,12.85
2023-07-09T08:00:41.245Z,12.10
2023-07-09T08:05:49.314Z,13.40
2023-07-09T08:10:51.537Z,12.68
2023-07-09T08:15:53.036Z,11.27
2023-07-09T08:20:54.531Z,13.40
2023-07-09T08:25:56.808Z,11.02
2023-07-09T08:30:58.360Z,11.20
2023-07-09T08:35:59.869Z,14.13
2023-07-09T08:41:03.248Z,10.70
2023-07-09T08:46:17.969Z,10.18
2023-07-09T08:51:28.996Z,11.85
2023-07-09T08:56:33.624Z,14.25
2023-07-09T09:01:41.838Z,11.35
2023-07-09T09:06:45.155Z,11.07
2023-07-09T09:11:49.744Z,11.82
2023-07-09T09:16:51.602Z,11.05
2023-07-09T09:21:56.917Z,12.30
2023-07-09T09:26:59.048Z,11.63
2023-07-09T09:32:03.865Z,9.98
2023-07-09T09:37:13.258Z,11.65
2023-07-09T09:42:14.759Z,11.85
2023-07-09T09:47:16.302Z,10.70
2023-07-09T09:52:19.320Z,10.23
2023-07-09T09:57:22.501Z,9.73
2023-07-09T10:02:26.832Z,8.57
2023-07-09T10:07:31.222Z,8.02
2023-07-09T10:12:49.035Z,10.13
2023-07-09T10:18:10.898Z,9.32
2023-07-09T10:23:18.700Z,10.25
2023-07-09T10:28:41.508Z,9.80
2023-07-09T10:33:43.101Z,9.30
2023-07-09T10:38:47.629Z,9.52
2023-07-09T10:43:53.641Z,7.95
2023-07-09T10:48:55.914Z,10.25
2023-07-09T10:54:13.822Z,9.38
2023-07-09T10:59:22.599Z,10.05
2023-07-09T11:04:27.007Z,9.40
2023-07-09T11:09:37.313Z,7.57
2023-07-09T11:14:42.251Z,7.35
2023-07-09T11:19:47.395Z,8.00
2023-07-09T11:24:53.737Z,7.25
2023-07-09T11:29:58.080Z,6.72
2023-07-09T11:35:10.059Z,6.78
2023-07-09T11:40:12.833Z,8.00
2023-07-09T11:45:15.878Z,7.30
2023-07-09T11:50:29.045Z,8.93
2023-07-09T11:55:34.746Z,9.30
2023-07-09T12:00:40.857Z,9.43
2023-07-09T12:05:43.792Z,10.32
2023-07-09T12:10:46.452Z,7.90
2023-07-09T12:15:48.543Z,7.13
2023-07-09T12:20:52.069Z,8.27
2023-07-09T12:25:53.920Z,9.18
2023-07-09T12:30:55.868Z,8.15
2023-07-09T12:35:58.486Z,10.18
2023-07-09T12:41:01.632Z,9.02
2023-07-09T12:46:03.393Z,8.57
2023-07-09T12:51:08.072Z,9.13
2023-07-09T12:56:13.048Z,10.52
2023-07-09T13:01:22.054Z,7.97
2023-07-09T13:06:30.695Z,8.63
2023-07-09T13:11:35.902Z,9.05
2023-07-09T13:16:43.760Z,10.93
2023-07-09T13:21:47.480Z,8.48
2023-07-09T13:26:49.068Z,11.40
2023-07-09T13:31:51.063Z,8.45
2023-07-09T13:36:54.786Z,10.23
2023-07-09T13:41:56.421Z,9.80
2023-07-09T13:46:58.421Z,14.10
2023-07-09T13:52:00.979Z,11.02
2023-07-09T13:57:06.014Z,10.98
2023-07-09T14:02:27.871Z,13.05
2023-07-09T14:07:35.816Z,10.90
2023-07-09T14:12:38.677Z,13.90
2023-07-09T14:17:40.287Z,12.45
2023-07-09T14:22:43.921Z,16.80
2023-07-09T14:27:45.599Z,15.82
2023-07-09T14:32:47.874Z,13.50
2023-07-09T14:37:50.639Z,14.50
2023-07-09T14:42:52.147Z,13.85
2023-07-09T14:47:54.493Z,15.95
2023-07-09T14:52:58.586Z,16.75
2023-07-09T14:58:01.988Z,16.35
2023-07-09T15:03:03.565Z,21.83
2023-07-09T15:08:13.481Z,16.20
2023-07-09T15:13:27.334Z,15.35
2023-07-09T15:18:29.292Z,16.60
2023-07-09T15:23:30.991Z,20.05
2023-07-09T15:28:32.444Z,16.38
2023-07-09T15:33:34.075Z,15.32
2023-07-09T15:38:36.249Z,16.30
2023-07-09T15:43:37.957Z,15.10
2023-07-09T15:48:40.980Z,16.27
2023-07-09T15:53:43.583Z,15.93
2023-07-09T15:58:45.966Z,19.15
2023-07-09T16:03:49.362Z,12.00
2023-07-09T16:08:51.266Z,14.13
2023-07-09T16:13:54.004Z,14.13
2023-07-09T16:18:55.809Z,14.23
2023-07-09T16:23:58.734Z,18.65
2023-07-09T16:29:00.196Z,15.10
2023-07-09T16:34:01.695Z,14.80
2023-07-09T16:39:05.988Z,14.90
2023-07-09T16:44:10.590Z,16.63
2023-07-09T16:49:24.307Z,14.70
2023-07-09T16:54:26.312Z,14.95
2023-07-09T16:59:27.902Z,14.90
2023-07-09T17:04:30.198Z,14.57
2023-07-09T17:09:31.914Z,14.27
2023-07-09T17:14:34.888Z,13.15
2023-07-09T17:19:36.582Z,14.52
2023-07-09T17:24:38.276Z,16.35
2023-07-09T17:29:40.504Z,17.23
2023-07-09T17:34:42.798Z,17.48
2023-07-09T17:39:44.513Z,15.07
2023-07-09T17:44:46.047Z,15.43
2023-07-09T17:49:48.274Z,17.08
2023-07-09T17:54:49.739Z,14.25
2023-07-09T17:59:51.574Z,18.08
2023-07-09T18:04:53.104Z,14.63
2023-07-09T18:09:54.987Z,19.42
2023-07-09T18:14:58.069Z,14.13
2023-07-09T18:19:59.971Z,15.77
2023-07-09T18:25:01.636Z,16.90
2023-07-09T18:30:04.162Z,14.77
2023-07-09T18:35:17.040Z,12.30
2023-07-09T18:40:19.004Z,12.25
2023-07-09T18:45:22.377Z,11.52
2023-07-09T18:50:27.515Z,11.32
2023-07-09T18:55:30.524Z,14.05
2023-07-09T19:00:32.101Z,13.43
2023-07-09T19:05:33.647Z,12.60
2023-07-09T19:10:35.167Z,11.98
2023-07-09T19:15:38.181Z,11.52
2023-07-09T19:20:39.758Z,12.80
2023-07-09T19:25:42.669Z,11.95
2023-07-09T19:30:45.221Z,13.77
2023-07-09T19:35:46.859Z,15.00
2023-07-09T19:40:48.462Z,12.00
2023-07-09T19:45:50.562Z,12.85
2023-07-09T19:50:52.305Z,14.45
2023-07-09T19:55:54.235Z,13.38
2023-07-09T20:00:57.830Z,15.55
2023-07-09T20:05:59.741Z,12.60
2023-07-09T20:11:02.213Z,14.43
2023-07-09T20:16:04.236Z,13.18
2023-07-09T20:21:15.873Z,13.18
2023-07-09T20:26:17.668Z,10.88
2023-07-09T20:31:24.175Z,12.30
2023-07-09T20:36:25.697Z,14.77
2023-07-09T20:41:29.365Z,11.70
2023-07-09T20:46:30.941Z,12.18
2023-07-09T20:51:32.393Z,12.90
2023-07-09T20:56:33.918Z,14.35
2023-07-09T21:01:35.419Z,13.20
2023-07-09T21:06:36.891Z,15.30
2023-07-09T21:11:38.498Z,13.50
2023-07-09T21:16:40.541Z,14.02
2023-07-09T21:21:42.016Z,17.13
2023-07-09T21:26:43.763Z,10.70
2023-07-09T21:31:45.354Z,13.60
2023-07-09T21:36:46.856Z,12.73
2023-07-09T21:41:56.047Z,13.68
2023-07-09T21:51:59.151Z,12.00
2023-07-09T21:57:01.631Z,14.38
2023-07-09T22:02:03.244Z,10.77
2023-07-09T22:07:15.312Z,11.20
2023-07-09T22:12:23.216Z,12.13
2023-07-09T22:17:29.276Z,15.50
2023-07-09T22:22:31.171Z,14.27
2023-07-09T22:27:33.712Z,14.13
2023-07-09T22:32:35.330Z,11.48
2023-07-09T22:37:38.570Z,11.18
2023-07-09T22:42:40.331Z,10.07
2023-07-09T22:47:42.505Z,7.68
2023-07-09T22:52:44.559Z,6.85
2023-07-09T22:57:46.005Z,8.57
2023-07-09T23:02:47.567Z,7.68
2023-07-09T23:07:49.104Z,8.27
2023-07-09T23:12:50.607Z,7.50
2023-07-09T23:17:55.379Z,9.63
2023-07-09T23:22:59.725Z,9.10
2023-07-09T23:28:02.022Z,7.20
2023-07-09T23:33:15.751Z,8.30
2023-07-09T23:38:17.242Z,9.27
2023-07-09T23:43:19.362Z,8.80
2023-07-09T23:48:27.615Z,8.18
2023-07-09T23:53:30.632Z,7.40
2023-07-09T23:58:34.340Z,7.68
